createdAt,value
2017-12-09T00:02:12.110Z,0.90
2017-12-09T00:04:40.975Z,0.80
2017-12-09T00:07:09.060Z,0.80
2017-12-09T00:09:37.883Z,0.80
2017-12-09T00:12:05.959Z,0.80
2017-12-09T00:14:34.024Z,0.90
2017-12-09T00:17:02.096Z,0.80
2017-12-09T00:19:30.163Z,0.80
2017-12-09T00:21:58.238Z,0.90
2017-12-09T00:24:26.311Z,0.70
2017-12-09T00:26:54.380Z,0.80
2017-12-09T00:29:22.709Z,0.70
2017-12-09T00:31:50.776Z,0.60
2017-12-09T00:34:19.100Z,0.70
2017-12-09T00:36:47.214Z,0.60
2017-12-09T00:39:15.280Z,0.50
2017-12-09T00:41:43.379Z,0.50
2017-12-09T00:44:12.212Z,0.40
2017-12-09T00:46:40.317Z,0.50
2017-12-09T00:49:08.388Z,0.60
2017-12-09T00:51:36.459Z,0.60
2017-12-09T00:54:04.531Z,0.80
2017-12-09T00:56:32.601Z,0.70
2017-12-09T00:59:01.447Z,0.60
2017-12-09T01:01:29.515Z,0.70
2017-12-09T01:03:57.611Z,0.30
2017-12-09T01:06:25.746Z,0.40
2017-12-09T01:08:53.820Z,0.30
2017-12-09T01:11:21.889Z,0.30
2017-12-09T01:13:49.970Z,0.30
2017-12-09T01:16:36.011Z,0.00
2017-12-09T01:19:04.086Z,0.00
2017-12-09T01:21:33.129Z,0.20
2017-12-09T01:24:01.202Z,0.00
2017-12-09T01:26:29.255Z,0.00
2017-12-09T01:28:57.384Z,0.00
2017-12-09T01:31:25.432Z,0.20
2017-12-09T01:33:53.532Z,0.10
2017-12-09T01:36:21.602Z,0.10
2017-12-09T01:38:49.759Z,0.30
2017-12-09T01:41:17.813Z,0.30
2017-12-09T01:43:45.885Z,0.20
2017-12-09T01:46:13.958Z,0.00
2017-12-09T01:48:42.034Z,0.00
2017-12-09T01:51:10.100Z,0.00
2017-12-09T01:53:38.165Z,0.00
2017-12-09T01:56:06.222Z,0.10
2017-12-09T01:58:34.280Z,0.00
2017-12-09T02:01:02.355Z,-0.10
2017-12-09T02:03:30.423Z,0.00
2017-12-09T02:05:58.497Z,0.10
2017-12-09T02:08:26.551Z,0.10
2017-12-09T02:10:54.638Z,0.00
2017-12-09T02:13:22.693Z,0.20
2017-12-09T02:15:50.781Z,0.20
2017-12-09T02:18:18.832Z,0.10
2017-12-09T02:20:46.896Z,0.10
2017-12-09T02:23:15.719Z,0.10
2017-12-09T02:25:43.783Z,0.00
2017-12-09T02:28:11.865Z,0.20
2017-12-09T02:30:39.923Z,0.20
2017-12-09T02:33:08.040Z,0.40
2017-12-09T02:35:36.092Z,0.40
2017-12-09T02:38:04.165Z,0.50
2017-12-09T02:40:32.234Z,0.40
2017-12-09T02:43:00.290Z,0.50
2017-12-09T02:45:28.363Z,0.30
2017-12-09T02:47:56.439Z,0.30
2017-12-09T02:50:24.497Z,0.40
2017-12-09T02:52:52.587Z,0.40
2017-12-09T02:55:20.772Z,0.50
2017-12-09T02:57:48.835Z,0.60
2017-12-09T03:00:16.889Z,0.60
2017-12-09T03:02:44.981Z,0.80
2017-12-09T03:05:13.052Z,0.70
2017-12-09T03:07:41.110Z,0.90
2017-12-09T03:10:09.174Z,0.90
2017-12-09T03:12:37.233Z,0.90
2017-12-09T03:15:05.303Z,0.90
2017-12-09T03:17:33.378Z,1.00
2017-12-09T03:20:01.459Z,0.90
2017-12-09T03:22:29.526Z,1.00
2017-12-09T03:24:57.878Z,0.80
2017-12-09T03:27:25.938Z,0.90
2017-12-09T03:29:54.046Z,0.70
2017-12-09T03:32:22.109Z,0.70
2017-12-09T03:34:50.188Z,0.70
2017-12-09T03:37:18.242Z,0.60
2017-12-09T03:39:46.319Z,0.70
2017-12-09T03:42:14.393Z,0.60
2017-12-09T03:44:42.477Z,0.50
2017-12-09T03:47:10.550Z,0.40
2017-12-09T03:49:38.992Z,0.60
2017-12-09T03:52:07.063Z,0.60
2017-12-09T03:54:35.141Z,0.80
2017-12-09T03:57:03.209Z,0.80
2017-12-09T03:59:31.279Z,0.90
2017-12-09T04:01:59.351Z,0.80
2017-12-09T04:04:27.481Z,1.00
2017-12-09T04:06:55.494Z,1.10
2017-12-09T04:09:24.515Z,1.00
2017-12-09T04:11:52.686Z,1.00
2017-12-09T04:14:20.742Z,1.00
2017-12-09T04:16:48.816Z,0.90
2017-12-09T04:19:22.827Z,1.10
2017-12-09T04:21:50.883Z,1.10
2017-12-09T04:24:18.950Z,1.10
2017-12-09T04:26:47.022Z,1.00
2017-12-09T04:29:15.095Z,1.00
2017-12-09T04:31:43.162Z,1.00
2017-12-09T04:34:11.236Z,1.10
2017-12-09T04:36:39.312Z,1.10
2017-12-09T04:39:07.398Z,1.10
2017-12-09T04:41:35.462Z,1.10
2017-12-09T04:44:03.540Z,1.00
2017-12-09T04:46:31.611Z,1.10
2017-12-09T04:49:00.582Z,1.20
2017-12-09T04:51:28.666Z,1.20
2017-12-09T04:53:56.733Z,1.20
2017-12-09T04:56:24.798Z,1.10
2017-12-09T04:58:52.867Z,1.10
2017-12-09T05:01:20.939Z,1.10
2017-12-09T05:03:49.007Z,1.10
2017-12-09T05:06:17.079Z,1.20
2017-12-09T05:08:45.166Z,1.30
2017-12-09T05:11:13.239Z,1.40
2017-12-09T05:13:41.311Z,1.50
2017-12-09T05:16:09.484Z,1.50
2017-12-09T05:18:37.560Z,1.40
2017-12-09T05:21:05.631Z,1.40
2017-12-09T05:23:33.697Z,1.30
2017-12-09T05:26:01.779Z,1.60
2017-12-09T05:28:29.851Z,1.40
2017-12-09T05:30:57.923Z,1.40
2017-12-09T05:33:25.984Z,1.60
2017-12-09T05:35:54.072Z,1.50
2017-12-09T05:38:22.228Z,1.70
2017-12-09T05:40:50.314Z,1.70
2017-12-09T05:43:18.399Z,1.70
2017-12-09T05:45:47.795Z,1.40
2017-12-09T05:48:16.640Z,1.40
2017-12-09T05:50:44.691Z,1.70
2017-12-09T05:53:12.775Z,1.60
2017-12-09T05:55:40.831Z,1.40
2017-12-09T05:58:08.940Z,1.20
2017-12-09T06:00:37.001Z,1.00
2017-12-09T06:03:05.075Z,0.80
2017-12-09T06:05:33.140Z,0.80
2017-12-09T06:08:07.104Z,1.10
2017-12-09T06:10:35.601Z,1.10
2017-12-09T06:13:03.662Z,1.30
2017-12-09T06:15:31.727Z,1.30
2017-12-09T06:17:59.792Z,1.60
2017-12-09T06:20:27.856Z,1.70
2017-12-09T06:22:55.923Z,1.80
2017-12-09T06:25:24.755Z,1.90
2017-12-09T06:27:52.823Z,1.80
2017-12-09T06:30:21.193Z,1.70
2017-12-09T06:32:49.255Z,1.80
2017-12-09T06:35:17.314Z,1.80
2017-12-09T06:37:45.367Z,1.90
2017-12-09T06:40:14.198Z,2.00
2017-12-09T06:42:42.264Z,2.00
2017-12-09T06:45:10.365Z,2.10
2017-12-09T06:47:38.439Z,2.00
2017-12-09T06:50:06.502Z,1.80
2017-12-09T06:52:34.571Z,1.70
2017-12-09T06:55:02.651Z,1.90
2017-12-09T06:57:30.718Z,1.90
2017-12-09T06:59:58.791Z,1.90
2017-12-09T07:02:26.862Z,1.80
2017-12-09T07:04:54.952Z,1.60
2017-12-09T07:07:23.778Z,1.50
2017-12-09T07:09:51.870Z,1.20
2017-12-09T07:12:19.928Z,1.00
2017-12-09T07:14:47.987Z,1.10
2017-12-09T07:17:16.100Z,1.00
2017-12-09T07:19:44.153Z,1.00
2017-12-09T07:22:12.227Z,1.00
2017-12-09T07:24:40.299Z,1.00
2017-12-09T07:27:08.371Z,1.10
2017-12-09T07:29:36.441Z,1.00
2017-12-09T07:32:04.508Z,1.00
2017-12-09T07:34:32.574Z,1.10
2017-12-09T07:37:00.662Z,1.10
2017-12-09T07:39:28.739Z,1.10
2017-12-09T07:41:56.807Z,1.00
2017-12-09T07:44:24.867Z,1.00
2017-12-09T07:46:52.938Z,1.00
2017-12-09T07:49:21.005Z,1.00
2017-12-09T07:51:49.072Z,0.90
2017-12-09T07:54:17.148Z,0.90
2017-12-09T07:56:45.218Z,1.00
2017-12-09T07:59:13.290Z,1.00
2017-12-09T08:01:41.342Z,0.90
2017-12-09T08:04:09.410Z,1.10
2017-12-09T08:06:37.467Z,1.10
2017-12-09T08:09:05.537Z,1.10
2017-12-09T08:11:34.567Z,1.00
2017-12-09T08:14:02.650Z,1.20
2017-12-09T08:16:30.707Z,1.10
2017-12-09T08:18:58.778Z,1.10
2017-12-09T08:21:26.851Z,1.20
2017-12-09T08:23:54.943Z,1.10
2017-12-09T08:26:23.762Z,1.20
2017-12-09T08:28:51.882Z,1.20
2017-12-09T08:31:19.966Z,1.20
2017-12-09T08:33:48.027Z,1.30
2017-12-09T08:36:16.881Z,1.30
2017-12-09T08:38:44.943Z,1.20
2017-12-09T08:41:13.011Z,1.10
2017-12-09T08:43:41.099Z,1.10
2017-12-09T08:46:09.162Z,1.10
2017-12-09T08:48:37.269Z,1.10
2017-12-09T08:51:05.343Z,1.20
2017-12-09T08:53:33.513Z,1.20
2017-12-09T08:56:01.584Z,1.40
2017-12-09T08:58:29.659Z,1.40
2017-12-09T09:00:57.830Z,1.40
2017-12-09T09:03:25.900Z,1.70
2017-12-09T09:05:53.971Z,1.60
2017-12-09T09:08:22.042Z,1.50
2017-12-09T09:10:50.119Z,1.50
2017-12-09T09:13:18.286Z,1.50
2017-12-09T09:15:46.360Z,1.30
2017-12-09T09:18:14.428Z,1.60
2017-12-09T09:20:42.500Z,1.70
2017-12-09T09:23:10.574Z,1.60
2017-12-09T09:25:38.626Z,1.60
2017-12-09T09:28:06.818Z,1.50
2017-12-09T09:30:34.881Z,1.60
2017-12-09T09:33:02.935Z,1.50
2017-12-09T09:35:30.994Z,1.60
2017-12-09T09:37:59.069Z,1.60
2017-12-09T09:40:27.243Z,1.60
2017-12-09T09:42:55.342Z,1.60
2017-12-09T09:45:23.414Z,1.50
2017-12-09T09:47:51.487Z,1.50
2017-12-09T09:50:19.557Z,1.50
2017-12-09T09:52:48.317Z,1.50
2017-12-09T09:55:16.530Z,1.50
2017-12-09T09:57:46.058Z,1.30
2017-12-09T10:00:14.150Z,1.30
2017-12-09T10:02:42.221Z,1.30
2017-12-09T10:05:10.275Z,1.30
2017-12-09T10:07:38.352Z,1.40
2017-12-09T10:10:06.416Z,1.40
2017-12-09T10:12:35.298Z,1.50
2017-12-09T10:15:03.579Z,1.50
2017-12-09T10:17:31.697Z,1.30
2017-12-09T10:19:59.758Z,1.10
2017-12-09T10:22:27.832Z,1.10
2017-12-09T10:24:55.898Z,1.20
2017-12-09T10:27:23.985Z,1.30
2017-12-09T10:29:52.038Z,1.30
2017-12-09T10:32:20.111Z,1.30
2017-12-09T10:34:48.178Z,1.40
2017-12-09T10:37:16.281Z,1.30
2017-12-09T10:39:44.415Z,1.20
2017-12-09T10:42:12.482Z,1.40
2017-12-09T10:44:40.539Z,1.30
2017-12-09T10:47:08.605Z,1.40
2017-12-09T10:49:36.672Z,1.50
2017-12-09T10:52:04.767Z,1.50
2017-12-09T10:54:32.831Z,1.40
2017-12-09T10:57:00.909Z,1.50
2017-12-09T10:59:28.967Z,1.50
2017-12-09T11:01:57.047Z,1.50
2017-12-09T11:04:25.227Z,1.70
2017-12-09T11:06:53.293Z,1.60
2017-12-09T11:09:21.355Z,1.50
2017-12-09T11:11:49.422Z,1.70
2017-12-09T11:14:17.503Z,1.70
2017-12-09T11:16:45.575Z,1.60
2017-12-09T11:19:13.647Z,1.80
2017-12-09T11:21:41.708Z,1.60
2017-12-09T11:24:09.792Z,1.80
2017-12-09T11:26:38.323Z,1.80
2017-12-09T11:29:07.159Z,1.60
2017-12-09T11:31:35.230Z,1.50
2017-12-09T11:34:03.299Z,1.30
2017-12-09T11:36:31.378Z,1.50
2017-12-09T11:38:59.444Z,1.30
2017-12-09T11:41:27.525Z,1.20
2017-12-09T11:43:55.582Z,1.30
2017-12-09T11:46:23.655Z,1.60
2017-12-09T11:48:51.717Z,1.80
2017-12-09T11:51:19.788Z,1.70
2017-12-09T11:53:47.855Z,1.90
2017-12-09T11:56:15.930Z,1.90
2017-12-09T11:58:44.000Z,1.90
2017-12-09T12:01:12.085Z,2.30
2017-12-09T12:03:40.143Z,2.10
2017-12-09T12:06:08.222Z,2.10
2017-12-09T12:08:36.341Z,2.30
2017-12-09T12:11:05.184Z,2.30
2017-12-09T12:13:33.244Z,2.30
2017-12-09T12:16:01.326Z,2.30
2017-12-09T12:18:29.424Z,2.40
2017-12-09T12:20:58.260Z,2.50
2017-12-09T12:23:26.335Z,2.40
2017-12-09T12:25:54.439Z,2.50
2017-12-09T12:28:22.591Z,2.70
2017-12-09T12:30:50.658Z,2.60
2017-12-09T12:33:18.732Z,2.60
2017-12-09T12:35:46.882Z,2.60
2017-12-09T12:38:14.959Z,2.70
2017-12-09T12:40:43.035Z,2.80
2017-12-09T12:43:11.108Z,2.70
2017-12-09T12:45:39.183Z,2.80
2017-12-09T12:48:07.259Z,2.70
2017-12-09T12:50:35.343Z,2.70
2017-12-09T12:53:03.416Z,2.80
2017-12-09T12:55:31.476Z,2.90
2017-12-09T12:57:59.569Z,2.90
2017-12-09T13:00:28.399Z,3.00
2017-12-09T13:02:56.469Z,3.00
2017-12-09T13:05:24.547Z,3.10
2017-12-09T13:07:52.610Z,3.00
2017-12-09T13:10:20.679Z,3.10
2017-12-09T13:12:48.790Z,3.20
2017-12-09T13:15:16.978Z,3.20
2017-12-09T13:17:45.053Z,3.10
2017-12-09T13:20:13.115Z,3.10
2017-12-09T13:22:41.195Z,3.10
2017-12-09T13:25:09.279Z,3.30
2017-12-09T13:27:37.420Z,3.40
2017-12-09T13:30:05.503Z,3.40
2017-12-09T13:32:33.579Z,3.40
2017-12-09T13:35:01.735Z,3.40
2017-12-09T13:37:29.809Z,3.30
2017-12-09T13:39:57.890Z,3.20
2017-12-09T13:42:25.966Z,3.40
2017-12-09T13:44:54.022Z,3.40
2017-12-09T13:47:22.110Z,3.50
2017-12-09T13:49:50.942Z,3.30
2017-12-09T13:52:19.063Z,3.60
2017-12-09T13:54:47.138Z,3.60
2017-12-09T13:57:15.316Z,3.60
2017-12-09T13:59:44.385Z,3.60
2017-12-09T14:02:12.463Z,3.50
2017-12-09T14:04:40.646Z,3.40
2017-12-09T14:07:09.109Z,3.50
2017-12-09T14:09:37.270Z,3.50
2017-12-09T14:12:05.337Z,3.40
2017-12-09T14:14:33.412Z,3.30
2017-12-09T14:17:01.482Z,3.40
2017-12-09T14:19:30.183Z,3.40
2017-12-09T14:21:58.539Z,3.30
2017-12-09T14:24:27.843Z,3.30
2017-12-09T14:26:55.951Z,3.40
2017-12-09T14:29:24.841Z,3.40
2017-12-09T14:31:53.690Z,3.30
2017-12-09T14:34:21.792Z,3.40
2017-12-09T14:36:49.878Z,3.20
2017-12-09T14:39:18.742Z,3.30
2017-12-09T14:41:46.816Z,3.30
2017-12-09T14:44:14.982Z,3.30
2017-12-09T14:46:43.057Z,3.10
2017-12-09T14:49:11.132Z,3.20
2017-12-09T14:51:40.054Z,3.20
2017-12-09T14:54:08.133Z,3.20
2017-12-09T14:56:36.272Z,3.30
2017-12-09T14:59:04.354Z,3.30
2017-12-09T15:01:38.805Z,3.60
2017-12-09T15:04:07.818Z,3.30
2017-12-09T15:06:35.911Z,3.40
2017-12-09T15:09:03.978Z,3.40
2017-12-09T15:11:32.215Z,3.30
2017-12-09T15:14:00.364Z,3.50
2017-12-09T15:16:29.204Z,3.30
2017-12-09T15:18:57.289Z,3.30
2017-12-09T15:21:25.359Z,3.30
2017-12-09T15:23:53.589Z,3.40
2017-12-09T15:26:21.659Z,3.60
2017-12-09T15:28:49.735Z,3.50
2017-12-09T15:31:17.795Z,3.50
2017-12-09T15:33:45.868Z,3.60
2017-12-09T15:36:13.938Z,3.40
2017-12-09T15:38:42.077Z,3.30
2017-12-09T15:41:12.948Z,3.40
2017-12-09T15:43:41.024Z,3.40
2017-12-09T15:46:09.119Z,3.30
2017-12-09T15:48:37.203Z,3.50
2017-12-09T15:51:05.268Z,3.40
2017-12-09T15:56:15.384Z,3.50
2017-12-09T15:58:43.469Z,3.60
2017-12-09T16:01:11.613Z,3.50
2017-12-09T16:03:40.435Z,3.60
2017-12-09T16:06:08.508Z,3.50
2017-12-09T16:08:36.571Z,3.40
2017-12-09T16:11:04.686Z,3.60
2017-12-09T16:13:32.935Z,3.50
2017-12-09T16:16:01.009Z,3.50
2017-12-09T16:18:29.072Z,3.40
2017-12-09T16:20:57.138Z,3.40
2017-12-09T16:23:25.240Z,3.60
2017-12-09T16:25:53.414Z,3.50
2017-12-09T16:28:21.481Z,3.60
2017-12-09T16:30:49.568Z,3.40
2017-12-09T16:33:17.727Z,3.40
2017-12-09T16:35:45.799Z,3.40
2017-12-09T16:38:13.874Z,3.30
2017-12-09T16:40:42.047Z,3.40
2017-12-09T16:43:10.132Z,3.40
2017-12-09T16:45:39.038Z,3.40
2017-12-09T16:48:07.119Z,3.30
2017-12-09T16:50:35.189Z,3.40
2017-12-09T16:53:03.280Z,3.50
2017-12-09T16:55:31.351Z,3.40
2017-12-09T16:57:59.431Z,3.40
2017-12-09T17:00:27.514Z,3.50
2017-12-09T17:02:55.582Z,3.40
2017-12-09T17:05:23.669Z,3.30
2017-12-09T17:07:51.856Z,3.50
2017-12-09T17:10:20.035Z,3.40
2017-12-09T17:12:48.892Z,3.40
2017-12-09T17:15:17.029Z,3.50
2017-12-09T17:17:45.103Z,3.40
2017-12-09T17:20:13.187Z,3.40
2017-12-09T17:22:42.257Z,3.40
2017-12-09T17:25:10.340Z,3.30
2017-12-09T17:27:38.469Z,3.40
2017-12-09T17:30:06.531Z,3.30
2017-12-09T17:32:34.603Z,3.40
2017-12-09T17:35:02.676Z,3.30
2017-12-09T17:37:30.751Z,3.30
2017-12-09T17:39:58.819Z,3.30
2017-12-09T17:42:26.895Z,3.20
2017-12-09T17:44:54.959Z,3.20
2017-12-09T17:50:23.963Z,3.00
2017-12-09T17:52:52.030Z,3.00
2017-12-09T17:55:20.154Z,3.00
2017-12-09T17:57:48.229Z,3.10
2017-12-09T18:00:19.412Z,3.00
2017-12-09T18:02:47.503Z,3.10
2017-12-09T18:05:15.611Z,3.00
2017-12-09T18:07:44.444Z,3.10
2017-12-09T18:10:13.435Z,3.10
2017-12-09T18:12:41.668Z,3.20
2017-12-09T18:15:10.504Z,3.10
2017-12-09T18:17:38.568Z,3.10
2017-12-09T18:20:06.687Z,3.10
2017-12-09T18:22:35.517Z,3.10
2017-12-09T18:25:03.762Z,3.00
2017-12-09T18:27:32.625Z,3.00
2017-12-09T18:30:00.699Z,3.10
2017-12-09T18:32:28.758Z,3.00
2017-12-09T18:34:56.824Z,3.00
2017-12-09T18:37:24.901Z,3.00
2017-12-09T18:39:52.975Z,3.10
2017-12-09T18:42:21.030Z,3.00
2017-12-09T18:44:49.168Z,3.00
2017-12-09T18:47:17.246Z,3.10
2017-12-09T18:49:45.359Z,3.00
2017-12-09T18:52:13.444Z,3.00
2017-12-09T18:54:41.538Z,3.00
2017-12-09T18:57:09.607Z,3.00
2017-12-09T18:59:37.718Z,3.00
2017-12-09T19:02:05.860Z,3.00
2017-12-09T19:04:33.954Z,3.00
2017-12-09T19:07:02.019Z,3.10
2017-12-09T19:09:30.079Z,3.00
2017-12-09T19:11:58.147Z,3.00
2017-12-09T19:14:26.201Z,3.10
2017-12-09T19:16:54.264Z,3.10
2017-12-09T19:19:23.095Z,3.00
2017-12-09T19:21:51.172Z,2.90
2017-12-09T19:24:19.239Z,3.00
2017-12-09T19:26:47.329Z,3.00
2017-12-09T19:29:16.390Z,3.10
2017-12-09T19:31:44.453Z,3.00
2017-12-09T19:34:12.553Z,3.00
2017-12-09T19:36:40.729Z,3.00
2017-12-09T19:39:08.782Z,2.90
2017-12-09T19:41:36.865Z,3.00
2017-12-09T19:44:04.936Z,3.00
2017-12-09T19:46:33.006Z,3.00
2017-12-09T19:49:01.085Z,3.00
2017-12-09T19:51:29.953Z,3.00
2017-12-09T19:53:58.027Z,3.10
2017-12-09T19:56:26.099Z,3.20
2017-12-09T19:58:54.168Z,3.10
2017-12-09T20:01:22.240Z,3.20
2017-12-09T20:03:50.327Z,3.10
2017-12-09T20:06:18.454Z,3.10
2017-12-09T20:08:46.506Z,3.10
2017-12-09T20:11:15.339Z,3.30
2017-12-09T20:13:43.429Z,3.30
2017-12-09T20:16:11.607Z,3.20
2017-12-09T20:18:39.780Z,3.10
2017-12-09T20:21:07.950Z,3.10
2017-12-09T20:23:36.140Z,2.90
2017-12-09T20:26:04.193Z,2.60
2017-12-09T20:28:32.268Z,2.60
2017-12-09T20:31:00.353Z,2.60
2017-12-09T20:33:28.415Z,2.50
2017-12-09T20:35:56.487Z,2.40
2017-12-09T20:38:24.709Z,2.30
2017-12-09T20:40:52.891Z,2.30
2017-12-09T20:43:20.971Z,2.40
2017-12-09T20:45:49.062Z,2.40
2017-12-09T20:48:17.123Z,2.30
2017-12-09T20:50:45.215Z,2.30
2017-12-09T20:53:13.273Z,2.30
2017-12-09T20:55:41.387Z,2.40
2017-12-09T20:58:10.219Z,2.30
2017-12-09T21:00:38.283Z,2.20
2017-12-09T21:03:06.350Z,2.20
2017-12-09T21:05:34.729Z,2.00
2017-12-09T21:08:02.795Z,2.00
2017-12-09T21:10:30.850Z,1.80
2017-12-09T21:12:58.918Z,1.80
2017-12-09T21:15:26.988Z,1.90
2017-12-09T21:17:55.054Z,1.90
2017-12-09T21:20:23.127Z,1.80
2017-12-09T21:22:51.189Z,1.70
2017-12-09T21:25:19.260Z,1.60
2017-12-09T21:27:47.329Z,1.60
2017-12-09T21:30:15.396Z,1.60
2017-12-09T21:32:44.232Z,1.70
2017-12-09T21:35:12.306Z,1.80
2017-12-09T21:37:40.370Z,1.80
2017-12-09T21:40:08.443Z,1.70
2017-12-09T21:42:36.518Z,1.50
2017-12-09T21:45:04.578Z,1.50
2017-12-09T21:47:32.671Z,1.50
2017-12-09T21:50:00.760Z,1.50
2017-12-09T21:52:28.814Z,1.50
2017-12-09T21:54:56.882Z,1.60
2017-12-09T21:57:24.950Z,1.60
2017-12-09T21:59:53.010Z,1.60
2017-12-09T22:02:21.072Z,1.50
2017-12-09T22:04:49.757Z,1.60
2017-12-09T22:07:17.810Z,1.60
2017-12-09T22:09:46.035Z,1.70
2017-12-09T22:12:14.082Z,1.70
2017-12-09T22:14:42.152Z,1.80
2017-12-09T22:17:10.273Z,1.80
2017-12-09T22:19:38.376Z,1.80
2017-12-09T22:22:06.447Z,1.80
2017-12-09T22:24:34.505Z,2.00
2017-12-09T22:27:02.578Z,1.90
2017-12-09T22:29:30.683Z,1.90
2017-12-09T22:31:58.764Z,1.90
2017-12-09T22:34:26.826Z,1.90
2017-12-09T22:36:54.896Z,1.90
2017-12-09T22:39:23.016Z,2.00
2017-12-09T22:41:51.051Z,1.90
2017-12-09T22:44:19.102Z,2.10
2017-12-09T22:46:47.176Z,2.20
2017-12-09T22:49:15.225Z,2.30
2017-12-09T22:51:43.305Z,2.20
2017-12-09T22:54:11.390Z,2.20
2017-12-09T22:56:39.459Z,2.10
2017-12-09T22:59:07.541Z,2.00
2017-12-09T23:01:35.598Z,1.90
2017-12-09T23:04:03.654Z,1.80
2017-12-09T23:06:31.775Z,1.80
2017-12-09T23:09:00.611Z,1.90
2017-12-09T23:11:28.678Z,2.00
2017-12-09T23:13:56.737Z,2.10
2017-12-09T23:16:24.813Z,2.20
2017-12-09T23:18:52.881Z,1.90
2017-12-09T23:21:20.958Z,2.00
2017-12-09T23:23:49.034Z,2.00
2017-12-09T23:26:17.086Z,2.10
2017-12-09T23:28:45.154Z,2.00
2017-12-09T23:31:13.214Z,1.80
2017-12-09T23:33:41.274Z,2.10
2017-12-09T23:36:09.343Z,2.00
2017-12-09T23:38:38.171Z,2.00
2017-12-09T23:41:06.236Z,2.00
2017-12-09T23:43:34.304Z,2.10
2017-12-09T23:46:02.370Z,2.20
2017-12-09T23:48:30.790Z,2.30
2017-12-09T23:50:58.847Z,2.10
2017-12-09T23:53:26.916Z,2.30
2017-12-09T23:55:54.966Z,2.10
2017-12-09T23:58:23.034Z,2.10
